Time;durP1;ratioP1;P1;durP2;ratioP2;P2;SDS_P1;SDS_P2;PMS_P1;PMS_P2;Temp;Humidity;BMP_temperature;BMP_pressure;BME280_temperature;BME280_humidity;BME280_pressure;Samples;Min_cycle;Max_cycle;Signal;HPM_P1;HPM_P2
2021/03/11 00:02:14;;;;;;;2.58;1.50;;;15.10;45.50;;;;;;5099092;28;20465;-73
2021/03/11 00:04:43;;;;;;;2.63;1.50;;;15.30;45.50;;;;;;5105215;28;20028;-73
2021/03/11 00:07:10;;;;;;;6.18;1.65;;;15.00;46.20;;;;;;5095028;28;20453;-73
2021/03/11 00:09:36;;;;;;;8.65;1.52;;;14.90;47.40;;;;;;5086240;28;20032;-73
2021/03/11 00:12:06;;;;;;;6.35;2.85;;;14.90;48.10;;;;;;5087082;28;20027;-73
2021/03/11 00:14:33;;;;;;;5.28;1.70;;;14.70;48.50;;;;;;5096795;28;20038;-73
2021/03/11 00:17:00;;;;;;;2.63;1.40;;;14.70;47.40;;;;;;5094944;28;20023;-74
2021/03/11 00:19:32;;;;;;;3.80;1.40;;;14.70;46.10;;;;;;5100835;28;20032;-74
2021/03/11 00:21:59;;;;;;;4.65;1.65;;;14.60;48.30;;;;;;5100925;28;20016;-73
2021/03/11 00:24:26;;;;;;;4.78;2.30;;;14.50;47.60;;;;;;5100646;28;20039;-74
2021/03/11 00:26:53;;;;;;;5.47;1.42;;;14.60;49.20;;;;;;5098007;28;20024;-75
2021/03/11 00:29:20;;;;;;;7.45;1.55;;;14.90;48.20;;;;;;5095968;28;20044;-73
2021/03/11 00:31:46;;;;;;;4.75;1.38;;;15.20;47.40;;;;;;5092447;28;20027;-74
2021/03/11 00:34:13;;;;;;;6.78;1.77;;;15.20;46.60;;;;;;5101185;28;20059;-73
2021/03/11 00:36:39;;;;;;;2.95;1.48;;;15.20;46.30;;;;;;5103534;28;20072;-76
2021/03/11 00:39:07;;;;;;;5.15;2.05;;;15.10;46.50;;;;;;5104387;28;20055;-75
2021/03/11 00:41:35;;;;;;;3.25;1.88;;;15.10;45.70;;;;;;5102273;28;20021;-73
2021/03/11 00:44:02;;;;;;;9.70;1.92;;;14.80;47.60;;;;;;5099214;28;20066;-73
2021/03/11 00:46:28;;;;;;;2.58;2.08;;;14.80;48.60;;;;;;5100391;28;20023;-73
2021/03/11 00:48:54;;;;;;;4.45;1.40;;;14.80;49.30;;;;;;5101351;28;20067;-73
2021/03/11 00:51:21;;;;;;;8.68;1.60;;;14.80;50.00;;;;;;5101681;28;20015;-73
2021/03/11 00:53:47;;;;;;;10.32;2.88;;;14.60;50.00;;;;;;5098648;28;20381;-72
2021/03/11 00:56:13;;;;;;;5.15;2.20;;;14.60;50.30;;;;;;5096899;28;20031;-74
2021/03/11 00:58:40;;;;;;;6.43;4.07;;;14.50;51.10;;;;;;5093856;28;20445;-74
2021/03/11 01:01:06;;;;;;;12.27;6.40;;;14.50;50.80;;;;;;5101107;28;20128;-73
2021/03/11 01:03:33;;;;;;;9.98;6.35;;;14.30;51.10;;;;;;5095570;28;20340;-72
2021/03/11 01:05:59;;;;;;;3.80;2.33;;;14.20;52.00;;;;;;5102805;28;20046;-73
2021/03/11 01:08:26;;;;;;;24.23;19.35;;;14.00;51.90;;;;;;5088214;28;20035;-74
2021/03/11 01:10:52;;;;;;;7.13;2.08;;;13.90;52.30;;;;;;5097257;28;20024;-75
2021/03/11 01:13:19;;;;;;;8.13;2.13;;;14.10;51.90;;;;;;5082969;28;20157;-75
2021/03/11 01:15:46;;;;;;;10.95;2.72;;;13.90;52.20;;;;;;5088630;28;20115;-75
2021/03/11 01:18:13;;;;;;;7.35;2.22;;;13.70;52.70;;;;;;5087603;28;20182;-74
2021/03/11 01:20:41;;;;;;;4.40;2.28;;;13.80;52.50;;;;;;5093305;28;20032;-75
2021/03/11 01:23:07;;;;;;;7.85;2.50;;;13.80;52.70;;;;;;5097416;28;20040;-74
2021/03/11 01:25:34;;;;;;;7.82;1.83;;;13.70;52.70;;;;;;5095414;28;20466;-74
2021/03/11 01:28:01;;;;;;;4.93;2.45;;;13.80;52.60;;;;;;5098105;28;20127;-74
2021/03/11 01:30:27;;;;;;;10.15;1.90;;;13.80;52.20;;;;;;5102071;28;20035;-74
2021/03/11 01:32:54;;;;;;;12.15;2.25;;;13.80;52.40;;;;;;5099997;28;20041;-74
2021/03/11 01:35:20;;;;;;;4.07;1.98;;;13.70;52.80;;;;;;5104350;28;20038;-74
2021/03/11 01:37:46;;;;;;;10.32;2.95;;;13.80;52.80;;;;;;5103525;28;20035;-73
2021/03/11 01:40:13;;;;;;;8.10;2.25;;;13.90;52.30;;;;;;5093869;28;20020;-75
2021/03/11 01:42:40;;;;;;;7.85;2.00;;;13.80;52.00;;;;;;5090354;28;20032;-74
2021/03/11 01:45:08;;;;;;;9.55;2.90;;;14.00;51.80;;;;;;5097547;28;20043;-75
2021/03/11 01:47:35;;;;;;;6.78;2.10;;;13.80;52.00;;;;;;5099917;28;20023;-75
2021/03/11 01:50:01;;;;;;;12.15;2.50;;;13.90;52.00;;;;;;5101320;28;20020;-74
2021/03/11 01:52:28;;;;;;;9.75;2.22;;;13.80;52.40;;;;;;5103243;28;20032;-75
2021/03/11 01:54:54;;;;;;;6.57;3.28;;;13.60;52.40;;;;;;5101122;28;20027;-75
2021/03/11 01:57:21;;;;;;;8.93;2.30;;;13.70;52.90;;;;;;5097444;28;20028;-74
2021/03/11 01:59:49;;;;;;;9.68;2.42;;;13.50;52.80;;;;;;5091409;28;20101;-75
2021/03/11 02:02:17;;;;;;;7.25;2.25;;;13.30;53.50;;;;;;5096094;28;20518;-75
2021/03/11 02:04:44;;;;;;;7.13;2.42;;;13.30;53.70;;;;;;5095968;28;20049;-75
2021/03/11 02:07:11;;;;;;;5.47;2.60;;;13.40;53.50;;;;;;5096004;28;20022;-75
2021/03/11 02:09:38;;;;;;;8.15;2.53;;;13.30;53.90;;;;;;5094977;28;20031;-75
2021/03/11 02:12:49;;;;;;;5.20;2.13;;;13.30;53.40;;;;;;5098981;28;20032;-75
2021/03/11 02:15:34;;;;;;;8.18;2.63;;;12.90;53.90;;;;;;5077149;28;20044;-74
2021/03/11 02:18:16;;;;;;;8.93;2.13;;;12.80;54.30;;;;;;5095616;28;20028;-76
2021/03/11 02:21:12;;;;;;;5.25;2.05;;;12.70;54.70;;;;;;5090475;28;20082;-74
2021/03/11 02:24:00;;;;;;;7.63;2.17;;;12.50;54.60;;;;;;5089767;28;20103;-74
2021/03/11 02:26:55;;;;;;;10.07;2.95;;;12.50;54.60;;;;;;5091269;28;20028;-75
2021/03/11 02:29:27;;;;;;;11.82;2.22;;;12.50;54.80;;;;;;5100742;28;20138;-75
2021/03/11 02:31:57;;;;;;;7.15;2.17;;;12.50;55.10;;;;;;5099261;28;20031;-75
2021/03/11 02:34:27;;;;;;;6.88;2.00;;;12.50;55.20;;;;;;5104805;28;20082;-76
2021/03/11 02:36:56;;;;;;;8.95;2.67;;;12.50;55.20;;;;;;5100945;28;20024;-75
2021/03/11 02:39:29;;;;;;;8.40;2.28;;;12.40;55.40;;;;;;5101438;28;20031;-75
2021/03/11 02:41:57;;;;;;;8.00;2.47;;;12.30;55.50;;;;;;5104667;28;20020;-75
2021/03/11 02:44:25;;;;;;;3.70;2.08;;;12.20;56.00;;;;;;5103737;28;20028;-75
2021/03/11 02:46:53;;;;;;;5.70;1.85;;;12.10;56.40;;;;;;5100409;28;20341;-74
2021/03/11 02:49:21;;;;;;;3.17;2.10;;;12.00;56.80;;;;;;5103002;28;20469;-75
2021/03/11 02:51:49;;;;;;;5.35;1.95;;;12.00;57.10;;;;;;5106432;28;20031;-76
2021/03/11 02:54:17;;;;;;;6.10;2.47;;;12.00;56.20;;;;;;5088913;28;20035;-75
2021/03/11 02:56:46;;;;;;;7.28;2.80;;;12.00;56.90;;;;;;5104655;28;20028;-76
2021/03/11 02:59:13;;;;;;;9.40;2.80;;;12.00;57.40;;;;;;5106236;28;20099;-77
2021/03/11 03:01:41;;;;;;;6.75;2.60;;;12.10;57.00;;;;;;5107665;28;20020;-76
2021/03/11 03:04:11;;;;;;;8.13;3.47;;;12.00;57.10;;;;;;5105987;28;20116;-75
2021/03/11 03:06:40;;;;;;;12.80;2.88;;;12.00;57.50;;;;;;5105663;28;20024;-75
2021/03/11 03:09:08;;;;;;;11.15;3.50;;;12.00;57.10;;;;;;5107117;28;20467;-75
2021/03/11 03:11:37;;;;;;;11.60;3.47;;;12.00;56.50;;;;;;5105170;28;20029;-75
2021/03/11 03:14:06;;;;;;;12.02;3.50;;;12.00;57.30;;;;;;5103966;28;20028;-74
2021/03/11 03:16:33;;;;;;;8.30;3.85;;;12.00;57.20;;;;;;5107493;27;20024;-75
2021/03/11 03:19:01;;;;;;;6.85;2.60;;;11.90;57.60;;;;;;5106478;28;20020;-75
2021/03/11 03:21:28;;;;;;;9.23;3.35;;;11.90;57.10;;;;;;5107539;28;20035;-75
2021/03/11 03:23:55;;;;;;;9.73;3.55;;;11.80;57.60;;;;;;5106149;28;20028;-75
2021/03/11 03:26:22;;;;;;;7.10;3.53;;;11.80;57.40;;;;;;5108508;28;20346;-75
2021/03/11 03:28:48;;;;;;;10.68;3.20;;;11.80;57.80;;;;;;5095598;28;20360;-75
2021/03/11 03:31:15;;;;;;;6.00;2.40;;;11.70;57.70;;;;;;5104875;28;20024;-75
2021/03/11 03:33:41;;;;;;;6.65;2.42;;;11.60;58.40;;;;;;5104138;28;20024;-75
2021/03/11 03:36:08;;;;;;;11.73;2.90;;;11.60;58.50;;;;;;5102902;28;20088;-75
2021/03/11 03:38:34;;;;;;;6.45;2.25;;;11.60;59.10;;;;;;5097051;28;20031;-76
2021/03/11 03:41:02;;;;;;;8.25;3.40;;;11.60;58.50;;;;;;5103814;28;20074;-76
2021/03/11 03:43:33;;;;;;;6.22;2.30;;;11.60;58.60;;;;;;5104928;28;20020;-75
2021/03/11 03:46:14;;;;;;;8.85;2.97;;;11.60;58.50;;;;;;5102580;28;20130;-76
2021/03/11 03:48:49;;;;;;;10.68;3.55;;;11.60;58.20;;;;;;5099109;28;20011;-76
2021/03/11 03:51:22;;;;;;;8.38;2.97;;;11.70;58.30;;;;;;5099288;28;20028;-76
2021/03/11 03:53:56;;;;;;;9.63;3.08;;;11.70;58.90;;;;;;5101152;28;20053;-75
2021/03/11 03:56:30;;;;;;;7.70;2.40;;;11.60;59.10;;;;;;5101729;28;20362;-74
2021/03/11 03:59:05;;;;;;;6.25;2.75;;;11.70;58.90;;;;;;5102731;28;20054;-74
2021/03/11 04:01:36;;;;;;;4.32;2.40;;;11.70;58.80;;;;;;5103140;28;20019;-74
2021/03/11 04:04:05;;;;;;;9.55;3.33;;;11.70;59.00;;;;;;5104493;28;20027;-74
2021/03/11 04:06:32;;;;;;;9.05;2.47;;;11.70;59.30;;;;;;5103617;28;20055;-74
2021/03/11 04:09:01;;;;;;;8.70;3.72;;;11.70;59.40;;;;;;5100247;28;20024;-74
2021/03/11 04:11:29;;;;;;;8.48;2.75;;;11.70;59.20;;;;;;5094182;28;20024;-73
2021/03/11 04:13:56;;;;;;;6.75;2.65;;;11.70;59.20;;;;;;5102691;28;20032;-73
2021/03/11 04:16:23;;;;;;;7.28;2.40;;;11.60;59.30;;;;;;5097160;28;20044;-73
2021/03/11 04:18:52;;;;;;;8.48;2.53;;;11.60;59.00;;;;;;5101515;28;20031;-73
2021/03/11 04:21:19;;;;;;;12.95;3.85;;;11.60;59.00;;;;;;5099723;28;20034;-75
2021/03/11 04:23:47;;;;;;;12.60;4.28;;;11.60;59.40;;;;;;5100590;28;20020;-74
2021/03/11 04:26:14;;;;;;;11.98;3.78;;;11.60;59.30;;;;;;5100537;28;20082;-73
2021/03/11 04:28:41;;;;;;;12.00;3.20;;;11.50;58.50;;;;;;5106379;28;20024;-75
2021/03/11 04:31:08;;;;;;;8.05;2.88;;;11.60;58.10;;;;;;5099726;28;20032;-75
2021/03/11 04:33:35;;;;;;;5.75;3.10;;;11.50;59.20;;;;;;5102466;28;20027;-72
2021/03/11 04:36:04;;;;;;;13.18;3.80;;;11.40;59.60;;;;;;5097361;28;20030;-76
2021/03/11 04:38:30;;;;;;;7.47;2.90;;;11.50;59.00;;;;;;5102984;28;20108;-76
2021/03/11 04:40:58;;;;;;;5.00;2.38;;;11.50;58.80;;;;;;5103774;28;20424;-76
2021/03/11 04:43:25;;;;;;;5.88;3.28;;;11.60;59.00;;;;;;5103107;28;20050;-75
2021/03/11 04:45:52;;;;;;;3.72;2.60;;;11.50;58.40;;;;;;5106413;28;20088;-75
2021/03/11 04:48:20;;;;;;;10.48;2.97;;;11.40;59.90;;;;;;5102817;28;20033;-75
2021/03/11 04:50:46;;;;;;;7.68;2.78;;;11.20;60.30;;;;;;5103370;28;20481;-76
2021/03/11 04:53:14;;;;;;;6.65;2.78;;;11.10;61.00;;;;;;5099069;28;20044;-76
2021/03/11 04:55:43;;;;;;;5.30;2.40;;;11.10;62.70;;;;;;5103038;28;20040;-76
2021/03/11 04:58:10;;;;;;;3.42;2.75;;;11.10;62.10;;;;;;5096646;28;20036;-75
2021/03/11 05:00:38;;;;;;;7.85;4.35;;;11.10;61.70;;;;;;5094039;28;20029;-76
2021/03/11 05:03:10;;;;;;;4.43;3.33;;;10.90;62.50;;;;;;5099147;28;20066;-75
2021/03/11 05:05:38;;;;;;;7.10;2.63;;;11.00;62.30;;;;;;5098797;28;20434;-76
2021/03/11 05:08:05;;;;;;;2.67;2.38;;;11.00;62.20;;;;;;5100978;28;20023;-76
2021/03/11 05:10:33;;;;;;;4.28;2.20;;;10.90;62.80;;;;;;5098215;28;20026;-76
2021/03/11 05:13:00;;;;;;;6.32;3.38;;;11.10;60.90;;;;;;5099682;28;21047;-75
2021/03/11 05:15:26;;;;;;;3.85;2.13;;;11.00;62.10;;;;;;5100635;28;20114;-75
2021/03/11 05:17:53;;;;;;;2.05;1.90;;;11.00;61.60;;;;;;5091223;28;20028;-75
2021/03/11 05:20:20;;;;;;;14.40;5.60;;;10.90;62.10;;;;;;5101232;28;20118;-75
2021/03/11 05:22:47;;;;;;;14.52;10.10;;;10.80;62.60;;;;;;5103285;28;20445;-74
2021/03/11 05:25:13;;;;;;;7.80;4.30;;;10.70;62.80;;;;;;5103473;28;20388;-76
2021/03/11 05:27:40;;;;;;;7.72;5.35;;;10.70;63.40;;;;;;5100508;28;20485;-76
2021/03/11 05:30:09;;;;;;;6.53;3.60;;;10.70;63.10;;;;;;5102951;28;20323;-76
2021/03/11 05:32:36;;;;;;;3.03;2.75;;;10.70;62.90;;;;;;5102692;28;20035;-74
2021/03/11 05:35:04;;;;;;;3.90;2.47;;;10.70;63.70;;;;;;5098849;28;20061;-74
2021/03/11 05:37:30;;;;;;;4.22;2.70;;;10.70;63.00;;;;;;5103935;28;20450;-74
2021/03/11 05:40:00;;;;;;;5.80;2.55;;;10.70;63.10;;;;;;5103140;28;20024;-74
2021/03/11 05:42:26;;;;;;;4.10;2.63;;;10.70;63.30;;;;;;5103070;28;20023;-75
2021/03/11 05:44:53;;;;;;;4.72;2.50;;;10.70;63.80;;;;;;5102962;28;20444;-75
2021/03/11 05:47:20;;;;;;;3.28;2.28;;;10.60;64.30;;;;;;5102441;28;20028;-74
2021/03/11 05:49:48;;;;;;;3.50;2.80;;;10.70;64.40;;;;;;5102314;28;20028;-76
2021/03/11 05:52:14;;;;;;;9.15;3.05;;;10.60;63.90;;;;;;5101116;28;20024;-74
2021/03/11 05:54:42;;;;;;;7.05;3.40;;;10.60;63.50;;;;;;5095034;28;20415;-74
2021/03/11 05:57:08;;;;;;;7.68;4.97;;;10.70;61.50;;;;;;5099355;28;20059;-74
2021/03/11 05:59:35;;;;;;;5.63;2.30;;;10.70;63.00;;;;;;5100438;28;20038;-74
2021/03/11 06:02:07;;;;;;;5.28;2.60;;;10.70;62.10;;;;;;5103259;28;20033;-74
2021/03/11 06:04:34;;;;;;;2.30;1.95;;;10.60;63.70;;;;;;5101470;28;20024;-74
2021/03/11 06:07:06;;;;;;;6.60;2.22;;;10.60;63.60;;;;;;5099987;28;20136;-74
2021/03/11 06:09:34;;;;;;;5.70;2.50;;;10.70;61.80;;;;;;5095186;28;20043;-74
2021/03/11 06:12:01;;;;;;;8.00;2.60;;;10.80;62.00;;;;;;5099552;28;20024;-74
2021/03/11 06:14:35;;;;;;;6.22;2.75;;;10.90;63.80;;;;;;5098102;28;20088;-76
2021/03/11 06:17:06;;;;;;;8.73;2.90;;;10.90;64.10;;;;;;5099264;28;20039;-74
2021/03/11 06:19:34;;;;;;;8.73;3.47;;;10.80;63.00;;;;;;5095739;28;20044;-74
2021/03/11 06:22:02;;;;;;;4.88;2.63;;;10.60;63.00;;;;;;5096651;28;20026;-74
2021/03/11 06:24:28;;;;;;;3.70;2.95;;;10.50;64.80;;;;;;5103834;28;20021;-74
2021/03/11 06:26:55;;;;;;;9.35;6.07;;;10.50;65.20;;;;;;5103695;28;20043;-74
2021/03/11 06:29:39;;;;;;;14.55;8.30;;;10.40;65.40;;;;;;5105017;28;20028;-75
2021/03/11 06:32:07;;;;;;;8.93;6.13;;;10.20;65.90;;;;;;5104577;28;20031;-76
2021/03/11 06:34:36;;;;;;;9.15;3.75;;;10.20;65.60;;;;;;5104644;28;20527;-76
2021/03/11 06:37:03;;;;;;;4.40;2.72;;;10.10;65.70;;;;;;5105623;28;20118;-76
2021/03/11 06:39:32;;;;;;;4.20;2.38;;;9.90;64.80;;;;;;5106459;28;20467;-76
2021/03/11 06:41:59;;;;;;;3.47;3.17;;;9.80;65.20;;;;;;5101752;28;20055;-76
2021/03/11 06:44:43;;;;;;;2.80;2.55;;;9.80;65.60;;;;;;5099891;28;20093;-76
2021/03/11 06:47:11;;;;;;;3.28;2.97;;;9.80;63.60;;;;;;5102646;28;20035;-76
2021/03/11 06:49:59;;;;;;;2.80;2.60;;;9.70;64.80;;;;;;5094502;28;20110;-75
2021/03/11 06:52:26;;;;;;;8.25;3.92;;;9.50;65.20;;;;;;5103980;28;20028;-76
2021/03/11 06:54:56;;;;;;;4.65;4.22;;;9.40;64.70;;;;;;5104198;28;20059;-75
2021/03/11 06:57:40;;;;;;;2.20;2.03;;;9.30;65.50;;;;;;5101930;28;20050;-75
2021/03/11 07:00:17;;;;;;;1.60;1.50;;;9.20;68.00;;;;;;5092402;28;20036;-75
2021/03/11 07:02:52;;;;;;;2.17;2.08;;;9.00;69.80;;;;;;5094386;28;20365;-77
2021/03/11 07:05:20;;;;;;;3.08;2.28;;;8.90;70.00;;;;;;5094720;28;20019;-74
2021/03/11 07:07:47;;;;;;;2.70;2.50;;;8.80;70.50;;;;;;5102838;28;20024;-75
2021/03/11 07:10:27;;;;;;;5.25;4.55;;;8.90;68.30;;;;;;5102688;28;20102;-74
2021/03/11 07:12:57;;;;;;;4.13;2.78;;;9.00;66.90;;;;;;5089744;28;20035;-75
2021/03/11 07:15:24;;;;;;;4.40;2.17;;;9.10;67.30;;;;;;5096367;28;20175;-75
2021/03/11 07:17:52;;;;;;;3.30;2.47;;;9.10;65.70;;;;;;5100488;28;20027;-74
2021/03/11 07:20:23;;;;;;;2.05;1.77;;;9.10;64.50;;;;;;5101085;28;20160;-75
2021/03/11 07:23:10;;;;;;;3.00;1.77;;;9.10;67.30;;;;;;5100058;28;20028;-74
2021/03/11 07:25:44;;;;;;;3.25;2.35;;;9.10;67.00;;;;;;5103594;28;20020;-75
2021/03/11 07:28:25;;;;;;;7.10;2.03;;;9.10;68.20;;;;;;5103584;28;20024;-74
2021/03/11 07:30:52;;;;;;;4.25;2.15;;;9.10;65.20;;;;;;5093030;28;20178;-76
2021/03/11 07:33:20;;;;;;;7.97;3.13;;;9.30;65.80;;;;;;5099255;28;20024;-75
2021/03/11 07:35:48;;;;;;;3.85;1.70;;;9.30;66.10;;;;;;5104026;28;20020;-73
2021/03/11 07:38:22;;;;;;;2.47;2.30;;;9.30;65.80;;;;;;5103728;28;20055;-74
2021/03/11 07:40:49;;;;;;;2.05;1.85;;;9.20;65.80;;;;;;5103074;28;20020;-74
2021/03/11 07:43:17;;;;;;;2.13;1.80;;;9.20;67.20;;;;;;5099932;28;20032;-74
2021/03/11 07:45:44;;;;;;;5.70;2.33;;;9.10;67.30;;;;;;5105107;28;20026;-74
2021/03/11 07:48:12;;;;;;;2.53;2.38;;;9.10;66.50;;;;;;5103790;28;20035;-73
2021/03/11 07:50:43;;;;;;;1.70;1.60;;;9.10;66.40;;;;;;5103285;28;20026;-74
2021/03/11 07:53:09;;;;;;;5.80;2.05;;;9.00;67.00;;;;;;5103445;28;20115;-74
2021/03/11 07:55:37;;;;;;;3.15;2.25;;;9.00;67.40;;;;;;5105834;28;20040;-74
2021/03/11 07:58:12;;;;;;;2.25;2.05;;;8.90;68.10;;;;;;5100601;28;20468;-74
2021/03/11 08:00:39;;;;;;;1.95;1.85;;;8.80;69.50;;;;;;5101082;28;20031;-74
2021/03/11 08:03:12;;;;;;;7.80;1.92;;;8.80;69.20;;;;;;5105411;28;20034;-76
2021/03/11 08:05:39;;;;;;;2.05;1.95;;;8.90;67.40;;;;;;5103643;28;20016;-74
2021/03/11 08:08:28;;;;;;;3.13;2.05;;;8.90;68.10;;;;;;5103286;28;20586;-73
2021/03/11 08:11:00;;;;;;;3.85;2.10;;;8.80;69.50;;;;;;5099143;28;20034;-74
2021/03/11 08:13:27;;;;;;;2.13;2.03;;;8.80;70.50;;;;;;5104887;28;20512;-73
2021/03/11 08:15:58;;;;;;;6.03;2.33;;;8.80;70.70;;;;;;5104878;28;20028;-74
2021/03/11 08:18:33;;;;;;;2.50;2.30;;;8.80;72.70;;;;;;5102891;28;20085;-75
2021/03/11 08:21:00;;;;;;;2.03;1.65;;;8.80;71.60;;;;;;5105655;28;20024;-73
2021/03/11 08:23:32;;;;;;;3.30;2.13;;;8.90;71.50;;;;;;5102821;28;20034;-74
2021/03/11 08:25:59;;;;;;;5.30;2.40;;;8.90;72.80;;;;;;5102501;28;20122;-74
2021/03/11 08:28:31;;;;;;;5.18;1.92;;;8.90;73.10;;;;;;5102030;28;20070;-75
2021/03/11 08:31:04;;;;;;;1.90;1.80;;;8.80;73.10;;;;;;5098567;28;20066;-74
2021/03/11 08:33:30;;;;;;;;;;;8.90;73.20;;;;;;5100905;28;20067;-73
2021/03/11 08:35:57;;;;;;;2.72;1.92;;;8.90;70.50;;;;;;5105040;28;19958;-73
2021/03/11 08:38:24;;;;;;;1.98;1.88;;;8.90;71.00;;;;;;5100025;28;20032;-74
2021/03/11 08:41:04;;;;;;;2.75;1.90;;;9.00;71.10;;;;;;5103178;28;20027;-73
2021/03/11 08:43:37;;;;;;;2.92;2.17;;;9.00;71.00;;;;;;5100244;28;20031;-73
2021/03/11 08:46:05;;;;;;;1.80;1.70;;;9.00;70.70;;;;;;5103261;28;20081;-74
2021/03/11 08:48:56;;;;;;;1.95;1.85;;;9.10;70.90;;;;;;5104781;28;20038;-73
2021/03/11 08:51:22;;;;;;;2.50;2.00;;;9.10;70.80;;;;;;5104989;28;20027;-74
2021/03/11 08:53:56;;;;;;;2.33;2.22;;;9.00;70.60;;;;;;5104252;28;20028;-73
2021/03/11 08:56:22;;;;;;;1.75;1.65;;;9.10;70.30;;;;;;5101511;28;20033;-73
2021/03/11 08:59:11;;;;;;;2.22;1.98;;;9.10;70.30;;;;;;5093682;28;20389;-74
2021/03/11 09:01:45;;;;;;;1.85;1.70;;;9.10;69.90;;;;;;5087029;28;20016;-72
2021/03/11 09:04:20;;;;;;;2.13;1.88;;;9.10;70.10;;;;;;5093213;28;20064;-73
2021/03/11 09:07:05;;;;;;;3.25;2.05;;;9.10;69.80;;;;;;5099921;28;20055;-73
2021/03/11 09:09:38;;;;;;;2.05;1.95;;;9.10;69.30;;;;;;5101553;28;20061;-73
2021/03/11 09:12:08;;;;;;;1.85;1.75;;;9.10;69.90;;;;;;5101851;28;20038;-72
2021/03/11 09:14:35;;;;;;;4.95;2.33;;;9.10;69.20;;;;;;5100638;28;20036;-73
2021/03/11 09:17:06;;;;;;;3.05;2.13;;;9.20;66.40;;;;;;5102486;28;20100;-72
2021/03/11 09:19:54;;;;;;;3.53;2.13;;;9.20;67.70;;;;;;5101408;28;20032;-72
2021/03/11 09:22:26;;;;;;;4.55;2.50;;;9.10;67.70;;;;;;5098522;28;20097;-73
2021/03/11 09:24:57;;;;;;;6.32;3.40;;;9.20;66.60;;;;;;5102201;28;20035;-72
2021/03/11 09:27:28;;;;;;;2.45;2.28;;;9.20;66.70;;;;;;5098323;28;20108;-72
2021/03/11 09:29:56;;;;;;;3.50;2.40;;;9.20;66.50;;;;;;5100656;28;20365;-72
2021/03/11 09:32:33;;;;;;;4.70;2.45;;;9.20;66.50;;;;;;5095448;28;20099;-72
2021/03/11 09:35:02;;;;;;;4.07;3.05;;;9.10;68.50;;;;;;5099415;28;20465;-72
2021/03/11 09:37:48;;;;;;;3.85;2.58;;;9.10;68.50;;;;;;5104911;28;20028;-71
2021/03/11 09:40:26;;;;;;;3.60;2.53;;;9.00;67.80;;;;;;5103119;28;20024;-73
2021/03/11 09:43:05;;;;;;;3.40;2.08;;;9.00;68.50;;;;;;5096081;28;20463;-72
2021/03/11 09:45:51;;;;;;;2.60;2.40;;;8.90;68.10;;;;;;5102179;28;20061;-72
2021/03/11 09:48:20;;;;;;;3.60;2.42;;;9.00;67.30;;;;;;5100191;28;20027;-72
2021/03/11 09:51:09;;;;;;;3.13;1.70;;;9.00;67.80;;;;;;5100415;28;20253;-72
2021/03/11 09:53:56;;;;;;;2.75;2.28;;;8.90;69.00;;;;;;5098798;28;20241;-72
2021/03/11 09:56:43;;;;;;;4.97;2.58;;;8.80;69.20;;;;;;5100895;28;20031;-73
2021/03/11 09:59:15;;;;;;;3.53;2.15;;;8.80;68.00;;;;;;5097130;28;20025;-73
2021/03/11 10:01:53;;;;;;;4.63;2.28;;;8.80;69.20;;;;;;5100963;28;20031;-72
2021/03/11 10:04:27;;;;;;;2.13;2.03;;;8.70;69.90;;;;;;5101278;28;20112;-72
2021/03/11 10:07:02;;;;;;;3.33;2.42;;;8.70;70.10;;;;;;5103422;28;20088;-72
2021/03/11 10:09:42;;;;;;;4.15;2.55;;;8.80;69.60;;;;;;5103244;28;20031;-73
2021/03/11 10:12:09;;;;;;;3.92;3.58;;;8.80;69.40;;;;;;5101292;28;20107;-72
2021/03/11 10:14:37;;;;;;;2.67;2.38;;;8.70;70.40;;;;;;5099981;28;20123;-72
2021/03/11 10:17:06;;;;;;;3.55;2.40;;;8.80;69.70;;;;;;5101671;28;20441;-72
2021/03/11 10:19:40;;;;;;;2.58;2.15;;;8.80;69.00;;;;;;5100295;28;20039;-73
2021/03/11 10:22:10;;;;;;;4.63;1.95;;;8.90;67.40;;;;;;5102836;28;20024;-72
2021/03/11 10:24:50;;;;;;;5.32;2.67;;;9.00;67.40;;;;;;5101927;28;20024;-73
2021/03/11 10:27:25;;;;;;;3.15;2.83;;;9.10;67.60;;;;;;5105241;28;20033;-72
2021/03/11 10:30:01;;;;;;;4.50;2.45;;;9.10;67.50;;;;;;5098096;28;20052;-72
2021/03/11 10:32:27;;;;;;;3.38;2.88;;;9.10;68.20;;;;;;5099988;28;20056;-73
2021/03/11 10:34:54;;;;;;;4.32;2.65;;;9.20;68.30;;;;;;5101697;28;20020;-72
2021/03/11 10:37:32;;;;;;;2.78;2.58;;;9.00;67.50;;;;;;5098029;28;20035;-72
2021/03/11 10:40:01;;;;;;;3.20;2.25;;;8.80;67.50;;;;;;5098321;28;20115;-72
2021/03/11 10:42:39;;;;;;;2.08;1.90;;;8.60;69.40;;;;;;5098248;28;20016;-72
2021/03/11 10:45:07;;;;;;;2.35;2.20;;;8.50;70.10;;;;;;5100512;28;20453;-72
2021/03/11 10:47:34;;;;;;;3.38;2.45;;;8.40;70.50;;;;;;5101416;28;20032;-73
2021/03/11 10:50:00;;;;;;;3.90;2.97;;;8.40;69.70;;;;;;5100473;28;20016;-72
2021/03/11 10:52:26;;;;;;;3.03;2.63;;;8.40;68.30;;;;;;5099933;28;20365;-73
2021/03/11 10:54:53;;;;;;;3.00;2.30;;;8.50;68.10;;;;;;5099313;28;20122;-74
2021/03/11 10:57:21;;;;;;;4.68;3.00;;;8.50;67.50;;;;;;5097668;28;20032;-73
2021/03/11 10:59:58;;;;;;;3.92;2.70;;;8.50;67.70;;;;;;5099840;28;20039;-73
2021/03/11 11:02:30;;;;;;;8.68;2.88;;;8.40;67.60;;;;;;5097007;28;20466;-73
2021/03/11 11:04:58;;;;;;;2.95;2.65;;;8.40;68.50;;;;;;5105399;28;20372;-73
2021/03/11 11:07:25;;;;;;;3.78;2.47;;;8.30;68.20;;;;;;5097355;28;20039;-73
2021/03/11 11:09:53;;;;;;;10.27;3.35;;;8.10;68.90;;;;;;5095858;28;20429;-73
2021/03/11 11:12:21;;;;;;;4.53;3.40;;;8.10;68.10;;;;;;5105547;28;20379;-72
2021/03/11 11:14:49;;;;;;;3.30;2.42;;;8.20;68.70;;;;;;5101911;28;20115;-72
2021/03/11 11:17:16;;;;;;;4.35;3.13;;;8.20;68.50;;;;;;5104147;28;20028;-72
2021/03/11 11:19:44;;;;;;;3.13;2.92;;;8.20;69.20;;;;;;5097992;28;20028;-72
2021/03/11 11:22:11;;;;;;;2.58;2.38;;;8.10;68.90;;;;;;5105302;28;20469;-72
2021/03/11 11:24:39;;;;;;;3.63;2.50;;;8.10;69.00;;;;;;5103602;28;20365;-72
2021/03/11 11:27:09;;;;;;;3.70;2.63;;;8.20;69.60;;;;;;5106059;28;20032;-72
2021/03/11 11:29:35;;;;;;;9.55;3.42;;;8.20;69.70;;;;;;5102435;28;20028;-73
2021/03/11 11:32:02;;;;;;;3.63;3.33;;;8.20;69.50;;;;;;5103084;28;20035;-72
2021/03/11 11:34:28;;;;;;;3.38;2.88;;;8.30;69.80;;;;;;5101112;28;20044;-72
2021/03/11 11:36:55;;;;;;;4.32;3.95;;;8.30;69.10;;;;;;5104001;28;20020;-72
2021/03/11 11:39:22;;;;;;;4.65;3.70;;;8.30;69.80;;;;;;5101631;28;20024;-72
2021/03/11 11:41:50;;;;;;;3.10;2.90;;;8.30;69.10;;;;;;5103756;28;20412;-72
2021/03/11 11:44:17;;;;;;;5.75;2.97;;;8.20;70.00;;;;;;5105343;28;20087;-72
2021/03/11 11:46:44;;;;;;;3.50;2.80;;;8.20;69.60;;;;;;5104532;28;20027;-74
2021/03/11 11:49:11;;;;;;;6.10;2.75;;;8.30;70.50;;;;;;5101434;28;20425;-74
2021/03/11 11:51:37;;;;;;;5.53;2.72;;;8.20;70.90;;;;;;5103370;28;20055;-72
2021/03/11 11:54:04;;;;;;;6.57;3.28;;;8.20;70.50;;;;;;5104031;28;20377;-73
2021/03/11 11:56:31;;;;;;;5.95;2.70;;;8.20;70.10;;;;;;5104817;28;20040;-72
2021/03/11 11:58:57;;;;;;;3.75;2.53;;;8.30;70.70;;;;;;5103904;28;20070;-73
2021/03/11 12:01:24;;;;;;;4.38;2.15;;;8.30;70.60;;;;;;5105139;28;20084;-73
2021/03/11 12:03:51;;;;;;;6.28;2.53;;;8.30;70.30;;;;;;5101813;28;20043;-72
2021/03/11 12:06:17;;;;;;;2.45;2.30;;;8.30;69.70;;;;;;5105685;28;20358;-72
2021/03/11 12:08:44;;;;;;;4.03;2.63;;;8.30;69.70;;;;;;5103186;28;20327;-72
2021/03/11 12:11:10;;;;;;;2.58;2.38;;;8.30;69.40;;;;;;5104095;28;20025;-72
2021/03/11 12:13:37;;;;;;;5.07;2.55;;;8.20;69.70;;;;;;5110733;28;20027;-73
2021/03/11 12:16:03;;;;;;;2.35;2.20;;;8.20;70.30;;;;;;5097214;28;20016;-73
2021/03/11 12:18:30;;;;;;;3.05;2.47;;;8.10;71.00;;;;;;5102808;28;20024;-73
2021/03/11 12:20:56;;;;;;;4.63;2.38;;;8.20;70.20;;;;;;5104968;28;20032;-72
2021/03/11 12:23:23;;;;;;;3.45;2.40;;;8.20;70.30;;;;;;5105810;28;20035;-72
2021/03/11 12:25:49;;;;;;;2.30;2.10;;;8.30;70.30;;;;;;5103921;28;20028;-72
2021/03/11 12:28:16;;;;;;;3.78;2.65;;;8.30;70.20;;;;;;5103917;28;20046;-72
2021/03/11 12:30:42;;;;;;;4.55;4.18;;;8.30;69.70;;;;;;5100303;28;20020;-72
2021/03/11 12:33:09;;;;;;;2.80;2.60;;;8.40;69.90;;;;;;5100291;28;20089;-72
2021/03/11 12:35:35;;;;;;;4.75;2.72;;;8.40;69.90;;;;;;5102289;28;20111;-72
2021/03/11 12:38:02;;;;;;;5.93;2.88;;;8.40;69.90;;;;;;5102633;28;20459;-72
2021/03/11 12:40:28;;;;;;;3.60;2.30;;;8.30;70.00;;;;;;5101406;28;20457;-72
2021/03/11 12:42:54;;;;;;;3.10;2.50;;;8.40;70.10;;;;;;5100913;28;20373;-72
2021/03/11 12:45:23;;;;;;;2.50;2.30;;;8.30;70.50;;;;;;5101757;28;20027;-72
2021/03/11 12:47:50;;;;;;;3.60;2.58;;;8.40;69.90;;;;;;5102288;28;20024;-72
2021/03/11 12:50:18;;;;;;;6.90;3.03;;;8.40;70.00;;;;;;5105617;28;20027;-72
2021/03/11 12:52:45;;;;;;;4.22;2.60;;;8.50;70.40;;;;;;5103193;28;20028;-72
2021/03/11 12:55:12;;;;;;;2.88;2.40;;;8.50;69.80;;;;;;5102677;28;20049;-72
2021/03/11 12:57:39;;;;;;;3.17;2.55;;;8.50;70.10;;;;;;5103070;28;20059;-72
2021/03/11 13:00:08;;;;;;;3.65;2.55;;;8.50;70.40;;;;;;5099338;28;20024;-72
2021/03/11 13:02:35;;;;;;;4.82;2.47;;;8.40;70.20;;;;;;5100288;28;20449;-72
2021/03/11 13:05:03;;;;;;;2.45;2.30;;;8.40;70.80;;;;;;5099574;28;20031;-72